FABH weather

Belfast Aerodrome
Belfast, Mpumalanga, South Africa

Public forecast

Using degrees Celsius for public forecast. Weather courtesy of forecast.io.

METAR (pilot weather report)

Report is more than 6 hours old.

Closest report is Ermelo Airport, 50.4 nm (93.3 km) S. Retrieved 2019/09/22 06:17 UTC (7 hours ago):

FAEO 220617Z 36011KT CAVOK 22/M00 Q1023

TAF (pilot weather forecast)

Forecast is more than 12 hours old.

Closest forecast is Ermelo Airport, 50.4 nm (93.3 km) S. Retrieved 2017/06/05 04:55 UTC (2 years ago):

TAF FAEO 050300Z 0504/0515 09006KT CAVOK TX18/0513ZTN05/0504Z